sensor_id;sensor_type;location;lat;lon;timestamp;pressure;altitude;pressure_sealevel;temperature;humidity
9129;BME280;4599;50.906;6.786;2023-08-30T00:03:13;99600.69;;;16.35;71.96
9129;BME280;4599;50.906;6.786;2023-08-30T00:07:35;99599.38;;;16.47;71.28
9129;BME280;4599;50.906;6.786;2023-08-30T00:11:57;99599.03;;;16.50;71.86
9129;BME280;4599;50.906;6.786;2023-08-30T00:16:20;99597.56;;;16.48;71.56
9129;BME280;4599;50.906;6.786;2023-08-30T00:20:42;99587.88;;;16.50;71.66
9129;BME280;4599;50.906;6.786;2023-08-30T00:25:04;99591.09;;;16.60;71.49
9129;BME280;4599;50.906;6.786;2023-08-30T00:29:27;99591.91;;;16.60;71.04
9129;BME280;4599;50.906;6.786;2023-08-30T00:33:50;99590.63;;;16.56;70.59
9129;BME280;4599;50.906;6.786;2023-08-30T00:38:12;99588.34;;;16.53;70.54
9129;BME280;4599;50.906;6.786;2023-08-30T00:42:33;99584.66;;;16.56;70.51
9129;BME280;4599;50.906;6.786;2023-08-30T00:46:55;99571.22;;;16.60;69.86
9129;BME280;4599;50.906;6.786;2023-08-30T00:51:19;99571.38;;;16.59;70.81
9129;BME280;4599;50.906;6.786;2023-08-30T00:55:42;99574.44;;;16.62;70.83
9129;BME280;4599;50.906;6.786;2023-08-30T01:00:06;99578.50;;;16.65;70.72
9129;BME280;4599;50.906;6.786;2023-08-30T01:04:28;99572.50;;;16.64;70.85
9129;BME280;4599;50.906;6.786;2023-08-30T01:08:51;99566.84;;;16.61;71.26
9129;BME280;4599;50.906;6.786;2023-08-30T01:13:18;99567.34;;;16.56;70.81
9129;BME280;4599;50.906;6.786;2023-08-30T01:17:42;99558.00;;;16.47;70.89
9129;BME280;4599;50.906;6.786;2023-08-30T01:22:10;99551.69;;;16.33;71.33
9129;BME280;4599;50.906;6.786;2023-08-30T01:26:41;99537.66;;;16.28;70.57
9129;BME280;4599;50.906;6.786;2023-08-30T01:31:08;99544.97;;;16.16;70.91
9129;BME280;4599;50.906;6.786;2023-08-30T01:35:31;99533.53;;;16.03;71.11
9129;BME280;4599;50.906;6.786;2023-08-30T01:39:54;99531.25;;;16.00;71.39
9129;BME280;4599;50.906;6.786;2023-08-30T01:44:17;99533.84;;;15.91;71.46
9129;BME280;4599;50.906;6.786;2023-08-30T01:48:41;99522.22;;;15.87;71.84
9129;BME280;4599;50.906;6.786;2023-08-30T01:53:03;99524.84;;;15.79;72.35
9129;BME280;4599;50.906;6.786;2023-08-30T01:57:25;99524.66;;;15.81;72.14
9129;BME280;4599;50.906;6.786;2023-08-30T02:01:47;99530.34;;;15.76;72.45
9129;BME280;4599;50.906;6.786;2023-08-30T02:06:13;99530.47;;;15.67;72.73
9129;BME280;4599;50.906;6.786;2023-08-30T02:10:41;99519.38;;;15.58;72.61
9129;BME280;4599;50.906;6.786;2023-08-30T02:15:07;99514.53;;;15.55;72.56
9129;BME280;4599;50.906;6.786;2023-08-30T02:19:30;99527.44;;;15.55;72.51
9129;BME280;4599;50.906;6.786;2023-08-30T02:23:53;99527.53;;;15.45;72.26
9129;BME280;4599;50.906;6.786;2023-08-30T02:28:15;99531.44;;;15.33;72.78
9129;BME280;4599;50.906;6.786;2023-08-30T02:32:37;99530.94;;;15.30;72.52
9129;BME280;4599;50.906;6.786;2023-08-30T02:36:58;99533.03;;;15.26;72.63
9129;BME280;4599;50.906;6.786;2023-08-30T02:41:22;99530.09;;;15.21;72.89
9129;BME280;4599;50.906;6.786;2023-08-30T02:45:44;99534.28;;;15.14;72.77
9129;BME280;4599;50.906;6.786;2023-08-30T02:50:06;99526.84;;;15.03;73.33
9129;BME280;4599;50.906;6.786;2023-08-30T02:54:28;99516.53;;;15.03;72.99
9129;BME280;4599;50.906;6.786;2023-08-30T02:58:51;99513.78;;;14.97;73.18
9129;BME280;4599;50.906;6.786;2023-08-30T03:03:13;99516.00;;;14.91;72.80
9129;BME280;4599;50.906;6.786;2023-08-30T03:07:35;99502.13;;;14.84;72.75
9129;BME280;4599;50.906;6.786;2023-08-30T03:11:57;99498.28;;;14.80;73.24
9129;BME280;4599;50.906;6.786;2023-08-30T03:16:20;99495.47;;;14.74;72.89
9129;BME280;4599;50.906;6.786;2023-08-30T03:20:42;99488.69;;;14.65;73.63
9129;BME280;4599;50.906;6.786;2023-08-30T03:25:04;99488.16;;;14.53;73.54
9129;BME280;4599;50.906;6.786;2023-08-30T03:29:26;99480.94;;;14.57;73.37
9129;BME280;4599;50.906;6.786;2023-08-30T03:33:50;99484.94;;;14.51;73.77
9129;BME280;4599;50.906;6.786;2023-08-30T03:38:11;99472.88;;;14.52;73.42
9129;BME280;4599;50.906;6.786;2023-08-30T03:42:33;99472.69;;;14.45;73.58
9129;BME280;4599;50.906;6.786;2023-08-30T03:46:55;99469.75;;;14.40;73.82
9129;BME280;4599;50.906;6.786;2023-08-30T03:51:18;99468.13;;;14.39;73.74
9129;BME280;4599;50.906;6.786;2023-08-30T03:55:40;99469.38;;;14.27;73.85
9129;BME280;4599;50.906;6.786;2023-08-30T04:00:02;99469.19;;;14.28;73.77
9129;BME280;4599;50.906;6.786;2023-08-30T04:04:24;99469.03;;;14.30;74.07
9129;BME280;4599;50.906;6.786;2023-08-30T04:08:47;99466.13;;;14.25;74.22
9129;BME280;4599;50.906;6.786;2023-08-30T04:13:10;99460.31;;;14.23;74.01
9129;BME280;4599;50.906;6.786;2023-08-30T04:17:33;99471.06;;;14.18;73.96
9129;BME280;4599;50.906;6.786;2023-08-30T04:21:55;99467.69;;;14.18;74.14
9129;BME280;4599;50.906;6.786;2023-08-30T04:26:18;99462.22;;;14.21;73.67
9129;BME280;4599;50.906;6.786;2023-08-30T04:30:40;99454.31;;;14.14;73.63
9129;BME280;4599;50.906;6.786;2023-08-30T04:35:02;99456.06;;;14.06;73.72
9129;BME280;4599;50.906;6.786;2023-08-30T04:39:24;99447.97;;;14.01;73.91
9129;BME280;4599;50.906;6.786;2023-08-30T04:43:47;99445.38;;;14.01;75.45
9129;BME280;4599;50.906;6.786;2023-08-30T04:48:09;99443.88;;;13.90;75.61
9129;BME280;4599;50.906;6.786;2023-08-30T04:52:31;99448.28;;;13.98;75.63
9129;BME280;4599;50.906;6.786;2023-08-30T04:56:53;99445.34;;;13.92;75.63
9129;BME280;4599;50.906;6.786;2023-08-30T05:01:20;99446.28;;;13.83;76.13
9129;BME280;4599;50.906;6.786;2023-08-30T05:05:45;99449.84;;;13.90;75.82
9129;BME280;4599;50.906;6.786;2023-08-30T05:10:08;99433.63;;;13.98;75.65
9129;BME280;4599;50.906;6.786;2023-08-30T05:14:29;99431.19;;;13.96;76.01
9129;BME280;4599;50.906;6.786;2023-08-30T05:18:53;99443.00;;;14.07;75.87
9129;BME280;4599;50.906;6.786;2023-08-30T05:23:14;99445.44;;;14.09;76.14
9129;BME280;4599;50.906;6.786;2023-08-30T05:27:36;99434.28;;;14.00;75.91
9129;BME280;4599;50.906;6.786;2023-08-30T05:31:58;99431.75;;;14.08;75.81
9129;BME280;4599;50.906;6.786;2023-08-30T05:36:21;99425.16;;;14.06;75.82
9129;BME280;4599;50.906;6.786;2023-08-30T05:40:43;99418.72;;;14.18;75.73
9129;BME280;4599;50.906;6.786;2023-08-30T05:45:06;99416.19;;;14.26;75.41
9129;BME280;4599;50.906;6.786;2023-08-30T05:49:28;99406.69;;;14.26;75.38
9129;BME280;4599;50.906;6.786;2023-08-30T05:53:51;99402.16;;;14.62;75.82
9129;BME280;4599;50.906;6.786;2023-08-30T05:58:13;99402.50;;;14.91;75.27
9129;BME280;4599;50.906;6.786;2023-08-30T06:02:35;99403.59;;;15.45;72.42
9129;BME280;4599;50.906;6.786;2023-08-30T06:06:57;99404.72;;;15.67;69.54
9129;BME280;4599;50.906;6.786;2023-08-30T06:11:20;99399.69;;;15.82;69.58
9129;BME280;4599;50.906;6.786;2023-08-30T06:15:42;99390.03;;;15.76;68.21
9129;BME280;4599;50.906;6.786;2023-08-30T06:20:04;99396.97;;;15.83;68.64
9129;BME280;4599;50.906;6.786;2023-08-30T06:24:26;99384.53;;;15.79;68.33
9129;BME280;4599;50.906;6.786;2023-08-30T06:28:49;99381.81;;;16.11;66.90
9129;BME280;4599;50.906;6.786;2023-08-30T06:33:25;99369.88;;;15.63;68.00
9129;BME280;4599;50.906;6.786;2023-08-30T06:37:47;99383.38;;;15.81;67.48
9129;BME280;4599;50.906;6.786;2023-08-30T06:42:09;99378.78;;;16.00;67.05
9129;BME280;4599;50.906;6.786;2023-08-30T06:46:32;99375.75;;;16.27;66.58
9129;BME280;4599;50.906;6.786;2023-08-30T06:50:57;99368.22;;;16.17;65.75
9129;BME280;4599;50.906;6.786;2023-08-30T06:55:19;99360.84;;;16.68;66.39
9129;BME280;4599;50.906;6.786;2023-08-30T06:59:41;99356.31;;;17.59;62.74
9129;BME280;4599;50.906;6.786;2023-08-30T07:04:04;99349.88;;;17.99;61.07
9129;BME280;4599;50.906;6.786;2023-08-30T07:08:26;99356.47;;;17.87;59.57
9129;BME280;4599;50.906;6.786;2023-08-30T07:12:48;99358.63;;;17.69;59.99
9129;BME280;4599;50.906;6.786;2023-08-30T07:17:09;99356.13;;;17.61;60.58
9129;BME280;4599;50.906;6.786;2023-08-30T07:21:33;99360.25;;;17.70;60.95
9129;BME280;4599;50.906;6.786;2023-08-30T07:25:54;99348.84;;;18.51;58.60
9129;BME280;4599;50.906;6.786;2023-08-30T07:30:16;99355.97;;;19.12;56.60
9129;BME280;4599;50.906;6.786;2023-08-30T07:34:38;99359.38;;;19.41;56.23
9129;BME280;4599;50.906;6.786;2023-08-30T07:39:01;99342.31;;;20.00;55.76
9129;BME280;4599;50.906;6.786;2023-08-30T07:43:23;99344.91;;;20.67;52.62
9129;BME280;4599;50.906;6.786;2023-08-30T07:47:45;99349.31;;;21.19;51.35
9129;BME280;4599;50.906;6.786;2023-08-30T07:52:07;99344.09;;;21.39;50.36
9129;BME280;4599;50.906;6.786;2023-08-30T07:56:30;99338.50;;;21.03;51.27
9129;BME280;4599;50.906;6.786;2023-08-30T08:00:52;99343.69;;;20.70;52.14
9129;BME280;4599;50.906;6.786;2023-08-30T08:05:14;99338.84;;;20.41;54.91
9129;BME280;4599;50.906;6.786;2023-08-30T08:09:36;99338.06;;;20.47;53.27
9129;BME280;4599;50.906;6.786;2023-08-30T08:13:59;99336.69;;;20.77;52.97
9129;BME280;4599;50.906;6.786;2023-08-30T08:18:21;99328.06;;;21.36;51.54
9129;BME280;4599;50.906;6.786;2023-08-30T08:22:43;99328.84;;;21.43;49.91
9129;BME280;4599;50.906;6.786;2023-08-30T08:27:05;99328.66;;;21.38;50.16
9129;BME280;4599;50.906;6.786;2023-08-30T08:31:28;99328.03;;;21.42;49.03
9129;BME280;4599;50.906;6.786;2023-08-30T08:35:50;99325.47;;;21.03;48.29
9129;BME280;4599;50.906;6.786;2023-08-30T08:40:12;99324.81;;;20.28;49.80
9129;BME280;4599;50.906;6.786;2023-08-30T08:44:35;99316.25;;;20.74;49.32
9129;BME280;4599;50.906;6.786;2023-08-30T08:49:01;99301.94;;;22.06;45.08
9129;BME280;4599;50.906;6.786;2023-08-30T08:53:23;99314.97;;;22.44;45.12
9129;BME280;4599;50.906;6.786;2023-08-30T08:57:45;99303.66;;;22.81;43.92
9129;BME280;4599;50.906;6.786;2023-08-30T09:02:12;99309.63;;;21.88;46.57
9129;BME280;4599;50.906;6.786;2023-08-30T09:06:37;99327.47;;;20.74;50.83
9129;BME280;4599;50.906;6.786;2023-08-30T09:11:00;99313.53;;;20.15;54.06
9129;BME280;4599;50.906;6.786;2023-08-30T09:15:30;99312.31;;;20.04;55.08
9129;BME280;4599;50.906;6.786;2023-08-30T09:19:53;99319.63;;;20.42;55.56
9129;BME280;4599;50.906;6.786;2023-08-30T09:24:16;99317.03;;;20.48;55.46
9129;BME280;4599;50.906;6.786;2023-08-30T09:28:41;99318.53;;;20.10;55.35
9129;BME280;4599;50.906;6.786;2023-08-30T09:33:04;99309.97;;;20.22;53.78
9129;BME280;4599;50.906;6.786;2023-08-30T09:37:26;99299.63;;;20.75;52.82
9129;BME280;4599;50.906;6.786;2023-08-30T09:41:50;99292.81;;;20.87;52.08
9129;BME280;4599;50.906;6.786;2023-08-30T09:46:12;99274.78;;;20.53;53.60
9129;BME280;4599;50.906;6.786;2023-08-30T09:50:35;99288.22;;;20.76;54.64
9129;BME280;4599;50.906;6.786;2023-08-30T09:54:57;99287.19;;;20.83;55.53
9129;BME280;4599;50.906;6.786;2023-08-30T09:59:21;99284.00;;;20.35;54.06
9129;BME280;4599;50.906;6.786;2023-08-30T10:03:43;99291.38;;;19.71;55.90
9129;BME280;4599;50.906;6.786;2023-08-30T10:08:07;99283.47;;;19.99;57.64
9129;BME280;4599;50.906;6.786;2023-08-30T10:12:29;99274.47;;;19.95;55.64
9129;BME280;4599;50.906;6.786;2023-08-30T10:17:01;99273.72;;;20.08;55.35
9129;BME280;4599;50.906;6.786;2023-08-30T10:21:24;99272.25;;;19.92;57.43
9129;BME280;4599;50.906;6.786;2023-08-30T10:25:46;99275.59;;;19.73;56.32
9129;BME280;4599;50.906;6.786;2023-08-30T10:30:13;99263.13;;;19.55;57.20
9129;BME280;4599;50.906;6.786;2023-08-30T10:34:37;99257.44;;;19.79;56.62
9129;BME280;4599;50.906;6.786;2023-08-30T10:38:59;99258.81;;;19.82;56.20
9129;BME280;4599;50.906;6.786;2023-08-30T10:43:31;99255.13;;;20.17;58.70
9129;BME280;4599;50.906;6.786;2023-08-30T10:47:56;99261.56;;;20.28;60.38
9129;BME280;4599;50.906;6.786;2023-08-30T10:52:20;99282.91;;;20.10;59.64
9129;BME280;4599;50.906;6.786;2023-08-30T10:56:46;99291.75;;;18.72;63.55
9129;BME280;4599;50.906;6.786;2023-08-30T11:01:09;99303.41;;;18.19;69.41
9129;BME280;4599;50.906;6.786;2023-08-30T11:05:32;99304.47;;;18.24;69.17
9129;BME280;4599;50.906;6.786;2023-08-30T11:09:55;99311.63;;;17.72;72.63
9129;BME280;4599;50.906;6.786;2023-08-30T11:14:18;99311.75;;;18.00;71.35
9129;BME280;4599;50.906;6.786;2023-08-30T11:18:40;99311.59;;;17.86;72.39
9129;BME280;4599;50.906;6.786;2023-08-30T11:23:02;99300.59;;;17.99;72.42
9129;BME280;4599;50.906;6.786;2023-08-30T11:27:25;99302.81;;;18.38;71.75
9129;BME280;4599;50.906;6.786;2023-08-30T11:31:49;99308.06;;;18.45;71.01
9129;BME280;4599;50.906;6.786;2023-08-30T11:36:10;99303.84;;;18.44;71.35
9129;BME280;4599;50.906;6.786;2023-08-30T11:40:32;99299.44;;;18.23;71.43
9129;BME280;4599;50.906;6.786;2023-08-30T11:44:57;99300.66;;;18.42;71.55
9129;BME280;4599;50.906;6.786;2023-08-30T11:49:19;99297.50;;;18.67;71.53
9129;BME280;4599;50.906;6.786;2023-08-30T11:53:41;99299.53;;;18.72;72.24
9129;BME280;4599;50.906;6.786;2023-08-30T11:58:04;99295.44;;;18.84;72.35
9129;BME280;4599;50.906;6.786;2023-08-30T12:02:27;99302.66;;;18.88;72.13
9129;BME280;4599;50.906;6.786;2023-08-30T12:06:52;99303.91;;;18.71;71.82
9129;BME280;4599;50.906;6.786;2023-08-30T12:11:18;99309.91;;;18.72;72.22
9129;BME280;4599;50.906;6.786;2023-08-30T12:15:40;99301.25;;;18.44;73.16
9129;BME280;4599;50.906;6.786;2023-08-30T12:20:05;99301.47;;;18.06;74.49
9129;BME280;4599;50.906;6.786;2023-08-30T12:24:27;99302.19;;;18.00;74.35
9129;BME280;4599;50.906;6.786;2023-08-30T12:28:48;99309.56;;;17.53;75.76
9129;BME280;4599;50.906;6.786;2023-08-30T12:33:10;99308.66;;;17.75;75.81
9129;BME280;4599;50.906;6.786;2023-08-30T12:37:34;99302.25;;;17.27;77.28
9129;BME280;4599;50.906;6.786;2023-08-30T12:41:56;99295.19;;;17.21;77.64
9129;BME280;4599;50.906;6.786;2023-08-30T12:46:18;99297.09;;;17.56;76.04
9129;BME280;4599;50.906;6.786;2023-08-30T12:50:41;99289.91;;;17.73;75.48
9129;BME280;4599;50.906;6.786;2023-08-30T12:55:05;99301.25;;;17.72;75.70
9129;BME280;4599;50.906;6.786;2023-08-30T12:59:27;99304.06;;;17.70;76.13
9129;BME280;4599;50.906;6.786;2023-08-30T13:03:48;99296.31;;;17.92;75.19
9129;BME280;4599;50.906;6.786;2023-08-30T13:08:10;99283.84;;;18.16;74.44
9129;BME280;4599;50.906;6.786;2023-08-30T13:12:34;99295.25;;;17.86;75.54
9129;BME280;4599;50.906;6.786;2023-08-30T13:16:59;99284.28;;;18.20;74.65
9129;BME280;4599;50.906;6.786;2023-08-30T13:21:21;99287.38;;;17.94;75.60
9129;BME280;4599;50.906;6.786;2023-08-30T13:25:56;99282.47;;;17.99;74.67
9129;BME280;4599;50.906;6.786;2023-08-30T13:30:19;99288.44;;;17.64;75.75
9129;BME280;4599;50.906;6.786;2023-08-30T13:34:41;99277.03;;;17.79;75.44
9129;BME280;4599;50.906;6.786;2023-08-30T13:39:03;99272.88;;;18.00;74.62
9129;BME280;4599;50.906;6.786;2023-08-30T13:43:25;99270.34;;;17.56;75.78
9129;BME280;4599;50.906;6.786;2023-08-30T13:47:48;99274.59;;;17.92;74.29
9129;BME280;4599;50.906;6.786;2023-08-30T13:52:10;99284.41;;;17.97;74.13
9129;BME280;4599;50.906;6.786;2023-08-30T13:56:31;99280.91;;;18.05;73.95
9129;BME280;4599;50.906;6.786;2023-08-30T14:00:53;99270.41;;;17.92;74.67
9129;BME280;4599;50.906;6.786;2023-08-30T14:05:17;99277.19;;;17.92;75.35
9129;BME280;4599;50.906;6.786;2023-08-30T14:09:38;99274.50;;;17.86;75.30
9129;BME280;4599;50.906;6.786;2023-08-30T14:14:01;99292.66;;;17.86;74.99
9129;BME280;4599;50.906;6.786;2023-08-30T14:18:23;99311.19;;;17.68;75.25
9129;BME280;4599;50.906;6.786;2023-08-30T14:22:46;99334.94;;;17.28;76.88
9129;BME280;4599;50.906;6.786;2023-08-30T14:27:08;99332.31;;;16.76;77.26
9129;BME280;4599;50.906;6.786;2023-08-30T14:31:30;99324.13;;;16.19;78.19
9129;BME280;4599;50.906;6.786;2023-08-30T14:35:51;99304.09;;;16.13;78.35
9129;BME280;4599;50.906;6.786;2023-08-30T14:40:15;99309.16;;;16.60;76.63
9129;BME280;4599;50.906;6.786;2023-08-30T14:44:37;99312.91;;;16.57;76.69
9129;BME280;4599;50.906;6.786;2023-08-30T14:48:59;99306.81;;;16.87;76.78
9129;BME280;4599;50.906;6.786;2023-08-30T14:53:21;99308.53;;;16.95;75.30
9129;BME280;4599;50.906;6.786;2023-08-30T14:57:44;99311.69;;;16.68;76.21
9129;BME280;4599;50.906;6.786;2023-08-30T15:02:06;99315.91;;;17.21;76.65
9129;BME280;4599;50.906;6.786;2023-08-30T15:06:28;99320.75;;;17.53;75.47
9129;BME280;4599;50.906;6.786;2023-08-30T15:10:50;99308.25;;;16.90;76.84
9129;BME280;4599;50.906;6.786;2023-08-30T15:15:13;99303.94;;;17.20;76.58
9129;BME280;4599;50.906;6.786;2023-08-30T15:19:35;99308.22;;;17.42;75.35
9129;BME280;4599;50.906;6.786;2023-08-30T15:23:57;99303.66;;;17.29;76.00
9129;BME280;4599;50.906;6.786;2023-08-30T15:28:19;99302.41;;;17.55;76.60
9129;BME280;4599;50.906;6.786;2023-08-30T15:32:42;99320.28;;;17.79;76.02
9129;BME280;4599;50.906;6.786;2023-08-30T15:37:04;99307.72;;;18.12;73.46
9129;BME280;4599;50.906;6.786;2023-08-30T15:41:26;99307.34;;;18.15;74.72
9129;BME280;4599;50.906;6.786;2023-08-30T15:45:48;99317.44;;;18.46;74.50
9129;BME280;4599;50.906;6.786;2023-08-30T15:50:11;99305.69;;;18.28;73.24
9129;BME280;4599;50.906;6.786;2023-08-30T15:54:33;99301.94;;;17.95;71.88
9129;BME280;4599;50.906;6.786;2023-08-30T15:58:54;99311.09;;;17.76;73.27
9129;BME280;4599;50.906;6.786;2023-08-30T16:03:17;99311.75;;;18.00;72.31
9129;BME280;4599;50.906;6.786;2023-08-30T16:07:40;99321.81;;;17.73;72.47
9129;BME280;4599;50.906;6.786;2023-08-30T16:12:02;99316.88;;;17.78;71.56
9129;BME280;4599;50.906;6.786;2023-08-30T16:16:24;99330.28;;;17.82;71.81
9129;BME280;4599;50.906;6.786;2023-08-30T16:20:49;99321.53;;;17.39;72.43
9129;BME280;4599;50.906;6.786;2023-08-30T16:25:12;99316.88;;;17.20;72.46
9129;BME280;4599;50.906;6.786;2023-08-30T16:29:34;99327.06;;;17.51;72.41
9129;BME280;4599;50.906;6.786;2023-08-30T16:33:56;99327.63;;;17.61;71.86
9129;BME280;4599;50.906;6.786;2023-08-30T16:38:17;99331.63;;;17.49;73.78
9129;BME280;4599;50.906;6.786;2023-08-30T16:42:41;99328.72;;;17.66;73.08
9129;BME280;4599;50.906;6.786;2023-08-30T16:47:03;99332.91;;;17.67;73.17
9129;BME280;4599;50.906;6.786;2023-08-30T16:51:25;99330.66;;;17.64;74.05
9129;BME280;4599;50.906;6.786;2023-08-30T16:55:46;99325.84;;;17.61;74.33
9129;BME280;4599;50.906;6.786;2023-08-30T17:00:11;99327.72;;;17.67;75.13
9129;BME280;4599;50.906;6.786;2023-08-30T17:04:33;99325.53;;;17.85;74.88
9129;BME280;4599;50.906;6.786;2023-08-30T17:08:56;99332.09;;;17.81;75.21
9129;BME280;4599;50.906;6.786;2023-08-30T17:13:17;99326.47;;;17.78;74.72
9129;BME280;4599;50.906;6.786;2023-08-30T17:17:41;99336.41;;;17.74;75.02
9129;BME280;4599;50.906;6.786;2023-08-30T17:22:03;99332.81;;;17.75;75.21
9129;BME280;4599;50.906;6.786;2023-08-30T17:26:25;99344.16;;;17.74;75.69
9129;BME280;4599;50.906;6.786;2023-08-30T17:30:46;99337.09;;;17.83;75.46
9129;BME280;4599;50.906;6.786;2023-08-30T17:35:10;99335.03;;;17.78;75.17
9129;BME280;4599;50.906;6.786;2023-08-30T17:39:32;99340.31;;;17.70;75.53
9129;BME280;4599;50.906;6.786;2023-08-30T17:43:53;99341.00;;;17.79;75.33
9129;BME280;4599;50.906;6.786;2023-08-30T17:48:15;99342.47;;;17.81;75.47
9129;BME280;4599;50.906;6.786;2023-08-30T17:52:38;99346.75;;;17.74;75.17
9129;BME280;4599;50.906;6.786;2023-08-30T17:57:00;99351.94;;;17.60;74.64
9129;BME280;4599;50.906;6.786;2023-08-30T18:01:22;99360.72;;;17.36;74.38
9129;BME280;4599;50.906;6.786;2023-08-30T18:05:44;99365.81;;;17.29;73.51
9129;BME280;4599;50.906;6.786;2023-08-30T18:10:08;99365.59;;;16.56;70.48
9129;BME280;4599;50.906;6.786;2023-08-30T18:14:30;99370.25;;;16.30;71.93
9129;BME280;4599;50.906;6.786;2023-08-30T18:18:52;99365.94;;;16.22;70.99
9129;BME280;4599;50.906;6.786;2023-08-30T18:23:16;99381.41;;;15.91;72.64
9129;BME280;4599;50.906;6.786;2023-08-30T18:27:39;99382.19;;;16.00;70.65
9129;BME280;4599;50.906;6.786;2023-08-30T18:32:01;99383.00;;;16.01;71.36
9129;BME280;4599;50.906;6.786;2023-08-30T18:36:24;99391.59;;;15.93;71.23
9129;BME280;4599;50.906;6.786;2023-08-30T18:40:46;99397.44;;;15.87;70.81
9129;BME280;4599;50.906;6.786;2023-08-30T18:45:18;99409.34;;;15.88;71.53
9129;BME280;4599;50.906;6.786;2023-08-30T18:49:40;99420.84;;;15.77;72.41
9129;BME280;4599;50.906;6.786;2023-08-30T18:54:02;99417.81;;;15.66;72.01
9129;BME280;4599;50.906;6.786;2023-08-30T18:58:24;99429.59;;;15.52;72.67
9129;BME280;4599;50.906;6.786;2023-08-30T19:02:47;99435.41;;;15.38;73.38
9129;BME280;4599;50.906;6.786;2023-08-30T19:07:09;99435.25;;;15.31;73.66
9129;BME280;4599;50.906;6.786;2023-08-30T19:11:31;99435.09;;;15.25;73.41
9129;BME280;4599;50.906;6.786;2023-08-30T19:15:52;99447.69;;;15.12;73.76
9129;BME280;4599;50.906;6.786;2023-08-30T19:20:16;99447.31;;;14.99;73.50
9129;BME280;4599;50.906;6.786;2023-08-30T19:24:38;99451.53;;;14.83;73.88
9129;BME280;4599;50.906;6.786;2023-08-30T19:28:59;99455.06;;;14.82;74.11
9129;BME280;4599;50.906;6.786;2023-08-30T19:33:21;99460.19;;;14.74;74.64
9129;BME280;4599;50.906;6.786;2023-08-30T19:37:45;99470.16;;;14.61;75.02
9129;BME280;4599;50.906;6.786;2023-08-30T19:42:07;99470.63;;;14.57;74.36
9129;BME280;4599;50.906;6.786;2023-08-30T19:46:28;99464.63;;;14.48;75.03
9129;BME280;4599;50.906;6.786;2023-08-30T19:50:51;99467.50;;;14.37;75.09
9129;BME280;4599;50.906;6.786;2023-08-30T19:55:14;99470.44;;;14.24;75.51
9129;BME280;4599;50.906;6.786;2023-08-30T19:59:36;99487.09;;;14.30;75.85
9129;BME280;4599;50.906;6.786;2023-08-30T20:03:58;99489.16;;;14.26;75.58
9129;BME280;4599;50.906;6.786;2023-08-30T20:08:20;99495.94;;;14.27;75.46
9129;BME280;4599;50.906;6.786;2023-08-30T20:12:43;99502.69;;;14.28;74.90
9129;BME280;4599;50.906;6.786;2023-08-30T20:17:05;99507.47;;;14.15;75.01
9129;BME280;4599;50.906;6.786;2023-08-30T20:21:27;99510.00;;;14.07;75.04
9129;BME280;4599;50.906;6.786;2023-08-30T20:25:49;99510.66;;;14.09;74.82
9129;BME280;4599;50.906;6.786;2023-08-30T20:30:13;99509.59;;;13.94;75.00
9129;BME280;4599;50.906;6.786;2023-08-30T20:34:35;99514.84;;;13.84;75.45
9129;BME280;4599;50.906;6.786;2023-08-30T20:38:56;99517.72;;;13.81;75.28
9129;BME280;4599;50.906;6.786;2023-08-30T20:43:18;99524.13;;;13.77;75.06
9129;BME280;4599;50.906;6.786;2023-08-30T20:47:41;99527.97;;;13.73;75.13
9129;BME280;4599;50.906;6.786;2023-08-30T20:52:04;99529.53;;;13.66;75.01
9129;BME280;4599;50.906;6.786;2023-08-30T20:56:27;99533.22;;;13.64;75.22
9129;BME280;4599;50.906;6.786;2023-08-30T21:00:53;99529.97;;;13.62;75.21
9129;BME280;4599;50.906;6.786;2023-08-30T21:05:17;99530.34;;;13.49;75.49
9129;BME280;4599;50.906;6.786;2023-08-30T21:09:39;99531.00;;;13.51;75.90
9129;BME280;4599;50.906;6.786;2023-08-30T21:14:00;99528.94;;;13.55;76.05
9129;BME280;4599;50.906;6.786;2023-08-30T21:18:22;99523.28;;;13.51;76.06
9129;BME280;4599;50.906;6.786;2023-08-30T21:22:45;99540.69;;;13.57;75.97
9129;BME280;4599;50.906;6.786;2023-08-30T21:27:07;99536.81;;;13.53;75.91
9129;BME280;4599;50.906;6.786;2023-08-30T21:31:29;99540.94;;;13.46;76.34
9129;BME280;4599;50.906;6.786;2023-08-30T21:35:51;99528.59;;;13.50;76.34
9129;BME280;4599;50.906;6.786;2023-08-30T21:40:14;99537.59;;;13.54;76.33
9129;BME280;4599;50.906;6.786;2023-08-30T21:44:36;99542.63;;;13.55;76.39
9129;BME280;4599;50.906;6.786;2023-08-30T21:48:58;99543.56;;;13.54;76.29
9129;BME280;4599;50.906;6.786;2023-08-30T21:53:20;99558.19;;;13.54;76.54
9129;BME280;4599;50.906;6.786;2023-08-30T21:57:43;99543.28;;;13.57;76.60
9129;BME280;4599;50.906;6.786;2023-08-30T22:02:05;99540.69;;;13.57;76.80
9129;BME280;4599;50.906;6.786;2023-08-30T22:06:27;99543.72;;;13.70;76.89
9129;BME280;4599;50.906;6.786;2023-08-30T22:10:49;99546.63;;;13.75;76.93
9129;BME280;4599;50.906;6.786;2023-08-30T22:15:12;99541.97;;;13.71;77.31
9129;BME280;4599;50.906;6.786;2023-08-30T22:19:34;99536.50;;;13.74;77.29
9129;BME280;4599;50.906;6.786;2023-08-30T22:23:57;99533.94;;;13.74;76.89
9129;BME280;4599;50.906;6.786;2023-08-30T22:28:19;99535.75;;;13.81;76.80
9129;BME280;4599;50.906;6.786;2023-08-30T22:32:42;99536.53;;;13.82;77.04
9129;BME280;4599;50.906;6.786;2023-08-30T22:37:04;99532.88;;;13.84;76.92
9129;BME280;4599;50.906;6.786;2023-08-30T22:41:26;99538.16;;;13.83;77.21
9129;BME280;4599;50.906;6.786;2023-08-30T22:45:47;99539.88;;;13.92;76.86
9129;BME280;4599;50.906;6.786;2023-08-30T22:50:11;99534.19;;;13.88;77.31
9129;BME280;4599;50.906;6.786;2023-08-30T22:54:32;99532.47;;;13.97;77.06
9129;BME280;4599;50.906;6.786;2023-08-30T22:58:54;99529.09;;;13.96;77.26
9129;BME280;4599;50.906;6.786;2023-08-30T23:03:16;99524.13;;;14.03;76.88
9129;BME280;4599;50.906;6.786;2023-08-30T23:07:39;99523.72;;;13.90;78.19
9129;BME280;4599;50.906;6.786;2023-08-30T23:12:01;99521.09;;;14.08;78.00
9129;BME280;4599;50.906;6.786;2023-08-30T23:16:23;99534.50;;;14.11;77.69
9129;BME280;4599;50.906;6.786;2023-08-30T23:20:45;99534.84;;;14.16;77.50
9129;BME280;4599;50.906;6.786;2023-08-30T23:25:09;99541.59;;;14.17;77.63
9129;BME280;4599;50.906;6.786;2023-08-30T23:29:31;99552.22;;;14.14;77.18
9129;BME280;4599;50.906;6.786;2023-08-30T23:33:52;99563.03;;;14.18;77.10
9129;BME280;4599;50.906;6.786;2023-08-30T23:38:14;99549.19;;;14.19;76.99
9129;BME280;4599;50.906;6.786;2023-08-30T23:42:38;99564.28;;;14.14;77.03
9129;BME280;4599;50.906;6.786;2023-08-30T23:47:00;99567.69;;;14.14;77.27
9129;BME280;4599;50.906;6.786;2023-08-30T23:51:21;99572.69;;;14.16;76.99